Modjeska Canyon, California
Current Conditions -  °F | °C
As of 3:56 PM on Tuesday 25 Nov 2014 (Local Time) from KAJO Reporting Station
Clear Clear  
Wind Chill: 78°   Ceiling: Unl
Heat Index: 78°   Visibility: 10mi
Dew Point: 13°   Wind: 0mph
Humidity: 9%   Direction: NA
Pressure: 30.26"   Gusts: NA
Location:  33.7477°N, 117.629°W
Report Text: KAJO 252356Z AUTO 00000KT 10SM CLR 26/M11 A3026 RMK AO2 56012 T02551105 10277 20222 SLP242 $
Loading
Personal Weather Stations






























Interactive Weather Map New forecast layout! Learn more

10-Day Weather Forecast

Advertisements
Track Severe Weather on mobile